Briefing drone pour Livron-sur-drome

Rechercher une autre localisation

Conditions de vol :


Nous sommes le : Lundi 06 février 2023
Il est 13:45 UTC (14:45 LT)

Lever de soleil : 06:27 UTC (07:27 LT)
Coucher de soleil : 17:21 UTC (18:21 LT)

Météo

L'essentiel des conditions de vol

VIGILANCE MÉTÉO FRANCE - Drôme (26)
Vigilance Jaune : Neige-verglas
CARTES DES FRONTS
METAR de LFLU
LFLU 061330Z AUTO 35016KT 9999 OVC038 07/01 Q1031

Date d'émission: 06/02/2023
Heure d'émission: 13:30 UTC
Vent: 350° pour 16 KT (30 km/h)
Visibilité horizontale: > 10 km
Plafond :
- Couvert à 3800ft (1158m)
Température: 7 °C
Point de rosée: 1 °C
Humidité: 66%
Pression (QNH): 1031 hPa
Prévision 24h pour Valence (12 km)
Vent : 7° pour 2 KT (8 km/h)
Temperature Maxi: 1 °C
Temperature Min: 1 °C
Humidité : 92%
Condition : Légères chutes de neige



Warning: count(): Parameter must be an array or an object that implements Countable in /homepages/6/d509196549/htdocs/droneoxygene/briefing.php on line 743
WEBCAM POUR LIVRON-SUR-DROME

Réglementation

Voler en sécurité

CARTES AERONAUTIQUE 1/500.000
CARTE AZBA (Reseau basse altitude)
CARTES VAC (LFLU)
SUP AIP




Chargement des AIP...
NOTAM (LIVRON-SUR-DROME + Terrain à proximité / FIR )




Chargement des NOTAMS...
CONTACT PREFECTURE 26
Drôme (26) : [email protected]


Avertissement : Les données mises à disposition sont indicatives. Oxygène Drone ne pourra être tenu responsable de dégâts causés aux biens et aux personnes.